sensor_id;sensor_type;location;lat;lon;timestamp;pressure;altitude;pressure_sealevel;temperature
15709;BMP180;7954;51.914;8.420;2022-12-07T00:01:44;100258.41;;;11.83
15709;BMP180;7954;51.914;8.420;2022-12-07T00:04:14;100268.06;;;11.80
15709;BMP180;7954;51.914;8.420;2022-12-07T00:06:44;100261.38;;;11.80
15709;BMP180;7954;51.914;8.420;2022-12-07T00:09:15;100263.91;;;11.80
15709;BMP180;7954;51.914;8.420;2022-12-07T00:11:43;100271.06;;;11.83
15709;BMP180;7954;51.914;8.420;2022-12-07T00:14:14;100260.66;;;11.76
15709;BMP180;7954;51.914;8.420;2022-12-07T00:16:43;100261.38;;;11.75
15709;BMP180;7954;51.914;8.420;2022-12-07T00:19:12;100251.28;;;11.80
15709;BMP180;7954;51.914;8.420;2022-12-07T00:21:41;100260.03;;;11.82
15709;BMP180;7954;51.914;8.420;2022-12-07T00:24:10;100260.94;;;11.83
15709;BMP180;7954;51.914;8.420;2022-12-07T00:26:41;100248.28;;;11.77
15709;BMP180;7954;51.914;8.420;2022-12-07T00:29:13;100252.69;;;11.89
15709;BMP180;7954;51.914;8.420;2022-12-07T00:31:43;100255.06;;;11.99
15709;BMP180;7954;51.914;8.420;2022-12-07T00:34:13;100249.13;;;12.04
15709;BMP180;7954;51.914;8.420;2022-12-07T00:36:41;100241.31;;;12.08
15709;BMP180;7954;51.914;8.420;2022-12-07T00:39:09;100241.31;;;12.02
15709;BMP180;7954;51.914;8.420;2022-12-07T00:41:37;100246.59;;;12.04
15709;BMP180;7954;51.914;8.420;2022-12-07T00:44:07;100240.78;;;11.94
15709;BMP180;7954;51.914;8.420;2022-12-07T00:46:35;100245.56;;;11.87
15709;BMP180;7954;51.914;8.420;2022-12-07T00:49:03;100245.75;;;11.77
15709;BMP180;7954;51.914;8.420;2022-12-07T00:51:31;100241.16;;;11.86
15709;BMP180;7954;51.914;8.420;2022-12-07T00:53:59;100242.63;;;11.95
15709;BMP180;7954;51.914;8.420;2022-12-07T00:56:28;100236.31;;;11.82
15709;BMP180;7954;51.914;8.420;2022-12-07T00:58:59;100239.66;;;11.66
15709;BMP180;7954;51.914;8.420;2022-12-07T01:01:30;100235.66;;;11.88
15709;BMP180;7954;51.914;8.420;2022-12-07T01:03:59;100228.38;;;12.01
15709;BMP180;7954;51.914;8.420;2022-12-07T01:06:28;100231.88;;;12.07
15709;BMP180;7954;51.914;8.420;2022-12-07T01:08:57;100232.38;;;12.10
15709;BMP180;7954;51.914;8.420;2022-12-07T01:11:28;100224.72;;;12.04
15709;BMP180;7954;51.914;8.420;2022-12-07T01:13:57;100228.88;;;12.04
15709;BMP180;7954;51.914;8.420;2022-12-07T01:16:27;100226.59;;;12.11
15709;BMP180;7954;51.914;8.420;2022-12-07T01:18:58;100232.09;;;12.03
15709;BMP180;7954;51.914;8.420;2022-12-07T01:21:28;100237.16;;;12.03
15709;BMP180;7954;51.914;8.420;2022-12-07T01:24:02;100239.41;;;11.96
15709;BMP180;7954;51.914;8.420;2022-12-07T01:26:30;100250.91;;;11.94
15709;BMP180;7954;51.914;8.420;2022-12-07T01:28:58;100238.50;;;12.01
15709;BMP180;7954;51.914;8.420;2022-12-07T01:31:29;100238.66;;;11.86
15709;BMP180;7954;51.914;8.420;2022-12-07T01:33:59;100254.38;;;11.68
15709;BMP180;7954;51.914;8.420;2022-12-07T01:36:29;100244.53;;;11.70
15709;BMP180;7954;51.914;8.420;2022-12-07T01:39:00;100246.56;;;11.67
15709;BMP180;7954;51.914;8.420;2022-12-07T01:41:30;100247.84;;;11.80
15709;BMP180;7954;51.914;8.420;2022-12-07T01:44:16;100250.47;;;11.96
15709;BMP180;7954;51.914;8.420;2022-12-07T01:46:46;100251.22;;;12.06
15709;BMP180;7954;51.914;8.420;2022-12-07T01:49:31;100254.25;;;12.15
15709;BMP180;7954;51.914;8.420;2022-12-07T01:52:09;100243.91;;;12.24
15709;BMP180;7954;51.914;8.420;2022-12-07T01:54:37;100247.88;;;12.27
15709;BMP180;7954;51.914;8.420;2022-12-07T01:57:06;100230.13;;;12.27
15709;BMP180;7954;51.914;8.420;2022-12-07T01:59:35;100237.72;;;12.27
15709;BMP180;7954;51.914;8.420;2022-12-07T02:02:07;100234.09;;;12.36
15709;BMP180;7954;51.914;8.420;2022-12-07T02:04:41;100241.91;;;12.32
15709;BMP180;7954;51.914;8.420;2022-12-07T02:07:09;100237.72;;;12.27
15709;BMP180;7954;51.914;8.420;2022-12-07T02:09:37;100230.88;;;12.37
15709;BMP180;7954;51.914;8.420;2022-12-07T02:12:05;100230.88;;;12.37
15709;BMP180;7954;51.914;8.420;2022-12-07T02:14:33;100235.47;;;12.34
15709;BMP180;7954;51.914;8.420;2022-12-07T02:17:07;100232.00;;;12.34
15709;BMP180;7954;51.914;8.420;2022-12-07T02:20:02;100231.94;;;12.23
15709;BMP180;7954;51.914;8.420;2022-12-07T02:23:00;100225.75;;;12.26
15709;BMP180;7954;51.914;8.420;2022-12-07T02:25:41;100231.03;;;12.22
15709;BMP180;7954;51.914;8.420;2022-12-07T02:28:19;100232.63;;;12.17
15709;BMP180;7954;51.914;8.420;2022-12-07T02:30:54;100227.34;;;12.20
15709;BMP180;7954;51.914;8.420;2022-12-07T02:33:26;100241.84;;;12.16
15709;BMP180;7954;51.914;8.420;2022-12-07T02:35:59;100236.47;;;12.04
15709;BMP180;7954;51.914;8.420;2022-12-07T02:38:35;100245.19;;;12.06
15709;BMP180;7954;51.914;8.420;2022-12-07T02:41:06;100243.91;;;11.76
15709;BMP180;7954;51.914;8.420;2022-12-07T02:43:40;100232.66;;;11.80
15709;BMP180;7954;51.914;8.420;2022-12-07T02:46:15;100237.50;;;11.84
15709;BMP180;7954;51.914;8.420;2022-12-07T02:48:45;100232.78;;;11.65
15709;BMP180;7954;51.914;8.420;2022-12-07T02:51:14;100222.97;;;11.77
15709;BMP180;7954;51.914;8.420;2022-12-07T02:53:45;100229.84;;;11.73
15709;BMP180;7954;51.914;8.420;2022-12-07T02:56:22;100225.31;;;11.87
15709;BMP180;7954;51.914;8.420;2022-12-07T02:59:02;100224.78;;;11.73
15709;BMP180;7954;51.914;8.420;2022-12-07T03:01:40;100214.81;;;11.95
15709;BMP180;7954;51.914;8.420;2022-12-07T03:04:24;100217.28;;;11.84
15709;BMP180;7954;51.914;8.420;2022-12-07T03:06:58;100220.91;;;11.80
15709;BMP180;7954;51.914;8.420;2022-12-07T03:09:33;100217.94;;;11.83
15709;BMP180;7954;51.914;8.420;2022-12-07T03:12:10;100219.88;;;12.00
15709;BMP180;7954;51.914;8.420;2022-12-07T03:14:45;100218.72;;;11.98
15709;BMP180;7954;51.914;8.420;2022-12-07T03:17:18;100227.03;;;12.03
15709;BMP180;7954;51.914;8.420;2022-12-07T03:19:49;100234.16;;;12.00
15709;BMP180;7954;51.914;8.420;2022-12-07T03:22:20;100230.38;;;11.87
15709;BMP180;7954;51.914;8.420;2022-12-07T03:24:53;100227.16;;;11.88
15709;BMP180;7954;51.914;8.420;2022-12-07T03:27:24;100225.56;;;11.88
15709;BMP180;7954;51.914;8.420;2022-12-07T03:29:56;100219.84;;;11.58
15709;BMP180;7954;51.914;8.420;2022-12-07T03:32:31;100215.84;;;11.49
15709;BMP180;7954;51.914;8.420;2022-12-07T03:35:03;100211.81;;;11.55
15709;BMP180;7954;51.914;8.420;2022-12-07T03:37:36;100219.84;;;11.58
15709;BMP180;7954;51.914;8.420;2022-12-07T03:40:13;100206.56;;;11.64
15709;BMP180;7954;51.914;8.420;2022-12-07T03:42:43;100209.53;;;11.62
15709;BMP180;7954;51.914;8.420;2022-12-07T03:45:12;100211.47;;;11.74
15709;BMP180;7954;51.914;8.420;2022-12-07T03:47:47;100210.28;;;11.72
15709;BMP180;7954;51.914;8.420;2022-12-07T03:50:22;100214.44;;;11.77
15709;BMP180;7954;51.914;8.420;2022-12-07T03:52:55;100219.19;;;11.64
15709;BMP180;7954;51.914;8.420;2022-12-07T03:55:27;100212.03;;;11.56
15709;BMP180;7954;51.914;8.420;2022-12-07T03:58:00;100212.28;;;11.58
15709;BMP180;7954;51.914;8.420;2022-12-07T04:00:30;100210.91;;;11.60
15709;BMP180;7954;51.914;8.420;2022-12-07T04:03:00;100211.25;;;11.47
15709;BMP180;7954;51.914;8.420;2022-12-07T04:05:28;100212.94;;;11.57
15709;BMP180;7954;51.914;8.420;2022-12-07T04:07:57;100212.28;;;11.58
15709;BMP180;7954;51.914;8.420;2022-12-07T04:10:26;100206.19;;;11.47
15709;BMP180;7954;51.914;8.420;2022-12-07T04:12:54;100212.00;;;11.25
15709;BMP180;7954;51.914;8.420;2022-12-07T04:15:22;100224.13;;;11.22
15709;BMP180;7954;51.914;8.420;2022-12-07T04:17:50;100214.09;;;11.28
15709;BMP180;7954;51.914;8.420;2022-12-07T04:20:20;100208.88;;;11.11
15709;BMP180;7954;51.914;8.420;2022-12-07T04:22:48;100217.66;;;11.19
15709;BMP180;7954;51.914;8.420;2022-12-07T04:25:16;100219.06;;;11.22
15709;BMP180;7954;51.914;8.420;2022-12-07T04:27:44;100217.41;;;11.17
15709;BMP180;7954;51.914;8.420;2022-12-07T04:30:12;100219.06;;;11.22
15709;BMP180;7954;51.914;8.420;2022-12-07T04:32:40;100227.97;;;11.15
15709;BMP180;7954;51.914;8.420;2022-12-07T04:35:09;100217.41;;;11.17
15709;BMP180;7954;51.914;8.420;2022-12-07T04:37:38;100222.28;;;11.21
15709;BMP180;7954;51.914;8.420;2022-12-07T04:40:08;100217.75;;;11.04
15709;BMP180;7954;51.914;8.420;2022-12-07T04:42:37;100220.13;;;11.08
15709;BMP180;7954;51.914;8.420;2022-12-07T04:45:06;100219.59;;;11.05
15709;BMP180;7954;51.914;8.420;2022-12-07T04:47:35;100219.81;;;11.01
15709;BMP180;7954;51.914;8.420;2022-12-07T04:50:04;100219.06;;;10.96
15709;BMP180;7954;51.914;8.420;2022-12-07T04:52:32;100233.00;;;10.89
15709;BMP180;7954;51.914;8.420;2022-12-07T04:55:01;100221.66;;;11.02
15709;BMP180;7954;51.914;8.420;2022-12-07T04:57:30;100221.22;;;11.04
15709;BMP180;7954;51.914;8.420;2022-12-07T04:59:58;100222.97;;;10.94
15709;BMP180;7954;51.914;8.420;2022-12-07T05:02:26;100221.13;;;10.93
15709;BMP180;7954;51.914;8.420;2022-12-07T05:04:55;100219.94;;;10.91
15709;BMP180;7954;51.914;8.420;2022-12-07T05:07:23;100221.81;;;10.72
15709;BMP180;7954;51.914;8.420;2022-12-07T05:09:51;100226.13;;;10.68
15709;BMP180;7954;51.914;8.420;2022-12-07T05:12:20;100232.59;;;10.51
15709;BMP180;7954;51.914;8.420;2022-12-07T05:14:48;100228.84;;;10.64
15709;BMP180;7954;51.914;8.420;2022-12-07T05:17:16;100218.63;;;10.73
15709;BMP180;7954;51.914;8.420;2022-12-07T05:19:45;100221.19;;;10.79
15709;BMP180;7954;51.914;8.420;2022-12-07T05:22:13;100227.69;;;10.88
15709;BMP180;7954;51.914;8.420;2022-12-07T05:24:41;100217.38;;;10.86
15709;BMP180;7954;51.914;8.420;2022-12-07T05:27:09;100216.47;;;10.86
15709;BMP180;7954;51.914;8.420;2022-12-07T05:29:38;100224.19;;;10.82
15709;BMP180;7954;51.914;8.420;2022-12-07T05:32:06;100224.59;;;10.74
15709;BMP180;7954;51.914;8.420;2022-12-07T05:34:34;100221.88;;;10.78
15709;BMP180;7954;51.914;8.420;2022-12-07T05:37:02;100224.59;;;10.74
15709;BMP180;7954;51.914;8.420;2022-12-07T05:39:31;100229.81;;;10.70
15709;BMP180;7954;51.914;8.420;2022-12-07T05:41:59;100224.59;;;10.74
15709;BMP180;7954;51.914;8.420;2022-12-07T05:44:45;100222.59;;;10.62
15709;BMP180;7954;51.914;8.420;2022-12-07T05:47:14;100221.59;;;10.71
15709;BMP180;7954;51.914;8.420;2022-12-07T05:49:43;100215.03;;;10.62
15709;BMP180;7954;51.914;8.420;2022-12-07T05:52:11;100214.88;;;10.66
15709;BMP180;7954;51.914;8.420;2022-12-07T05:54:39;100216.84;;;10.57
15709;BMP180;7954;51.914;8.420;2022-12-07T05:57:08;100206.75;;;10.57
15709;BMP180;7954;51.914;8.420;2022-12-07T05:59:35;100216.66;;;10.61
15709;BMP180;7954;51.914;8.420;2022-12-07T06:02:05;100208.50;;;10.53
15709;BMP180;7954;51.914;8.420;2022-12-07T06:04:36;100202.56;;;10.52
15709;BMP180;7954;51.914;8.420;2022-12-07T06:07:06;100209.47;;;10.53
15709;BMP180;7954;51.914;8.420;2022-12-07T06:09:34;100213.94;;;10.45
15709;BMP180;7954;51.914;8.420;2022-12-07T06:12:05;100207.84;;;10.54
15709;BMP180;7954;51.914;8.420;2022-12-07T06:14:52;100203.59;;;10.64
15709;BMP180;7954;51.914;8.420;2022-12-07T06:17:21;100207.22;;;10.60
15709;BMP180;7954;51.914;8.420;2022-12-07T06:19:50;100211.13;;;10.58
15709;BMP180;7954;51.914;8.420;2022-12-07T06:22:18;100206.00;;;10.53
15709;BMP180;7954;51.914;8.420;2022-12-07T06:24:46;100204.09;;;10.46
15709;BMP180;7954;51.914;8.420;2022-12-07T06:27:14;100209.94;;;10.56
15709;BMP180;7954;51.914;8.420;2022-12-07T06:29:43;100217.16;;;10.44
15709;BMP180;7954;51.914;8.420;2022-12-07T06:32:11;100219.66;;;10.44
15709;BMP180;7954;51.914;8.420;2022-12-07T06:34:41;100214.19;;;10.46
15709;BMP180;7954;51.914;8.420;2022-12-07T06:37:10;100209.56;;;10.44
15709;BMP180;7954;51.914;8.420;2022-12-07T06:39:38;100216.72;;;10.26
15709;BMP180;7954;51.914;8.420;2022-12-07T06:42:06;100211.53;;;10.15
15709;BMP180;7954;51.914;8.420;2022-12-07T06:44:35;100201.31;;;10.24
15709;BMP180;7954;51.914;8.420;2022-12-07T06:47:03;100208.00;;;10.29
15709;BMP180;7954;51.914;8.420;2022-12-07T06:49:53;100213.56;;;10.32
15709;BMP180;7954;51.914;8.420;2022-12-07T06:52:20;100203.06;;;10.35
15709;BMP180;7954;51.914;8.420;2022-12-07T06:54:48;100203.06;;;10.35
15709;BMP180;7954;51.914;8.420;2022-12-07T06:57:16;100212.09;;;10.24
15709;BMP180;7954;51.914;8.420;2022-12-07T06:59:44;100213.78;;;10.14
15709;BMP180;7954;51.914;8.420;2022-12-07T07:02:12;100210.09;;;10.12
15709;BMP180;7954;51.914;8.420;2022-12-07T07:04:40;100233.41;;;10.05
15709;BMP180;7954;51.914;8.420;2022-12-07T07:07:11;100231.88;;;9.96
15709;BMP180;7954;51.914;8.420;2022-12-07T07:09:40;100237.31;;;9.94
15709;BMP180;7954;51.914;8.420;2022-12-07T07:12:08;100237.19;;;9.98
15709;BMP180;7954;51.914;8.420;2022-12-07T07:14:37;100248.00;;;9.87
15709;BMP180;7954;51.914;8.420;2022-12-07T07:17:05;100247.16;;;9.77
15709;BMP180;7954;51.914;8.420;2022-12-07T07:19:33;100232.25;;;9.94
15709;BMP180;7954;51.914;8.420;2022-12-07T07:22:03;100233.22;;;9.94
15709;BMP180;7954;51.914;8.420;2022-12-07T07:24:32;100240.78;;;9.94
15709;BMP180;7954;51.914;8.420;2022-12-07T07:27:00;100236.91;;;9.96
15709;BMP180;7954;51.914;8.420;2022-12-07T07:29:28;100238.69;;;9.92
15709;BMP180;7954;51.914;8.420;2022-12-07T07:31:56;100245.16;;;10.10
15709;BMP180;7954;51.914;8.420;2022-12-07T07:34:31;100242.03;;;10.17
15709;BMP180;7954;51.914;8.420;2022-12-07T07:37:00;100232.28;;;10.24
15709;BMP180;7954;51.914;8.420;2022-12-07T07:39:31;100242.84;;;10.26
15709;BMP180;7954;51.914;8.420;2022-12-07T07:41:59;100254.97;;;10.09
15709;BMP180;7954;51.914;8.420;2022-12-07T07:44:27;100250.28;;;10.01
15709;BMP180;7954;51.914;8.420;2022-12-07T07:47:00;100254.00;;;10.03
15709;BMP180;7954;51.914;8.420;2022-12-07T07:49:28;100249.38;;;9.85
15709;BMP180;7954;51.914;8.420;2022-12-07T07:51:57;100261.78;;;9.74
15709;BMP180;7954;51.914;8.420;2022-12-07T07:54:25;100261.53;;;9.88
15709;BMP180;7954;51.914;8.420;2022-12-07T07:56:55;100266.47;;;9.82
15709;BMP180;7954;51.914;8.420;2022-12-07T07:59:23;100268.28;;;9.93
15709;BMP180;7954;51.914;8.420;2022-12-07T08:01:51;100274.22;;;9.93
15709;BMP180;7954;51.914;8.420;2022-12-07T08:04:20;100279.09;;;9.82
15709;BMP180;7954;51.914;8.420;2022-12-07T08:06:48;100275.13;;;9.79
15709;BMP180;7954;51.914;8.420;2022-12-07T08:09:16;100271.53;;;9.82
15709;BMP180;7954;51.914;8.420;2022-12-07T08:11:44;100274.63;;;9.91
15709;BMP180;7954;51.914;8.420;2022-12-07T08:14:14;100265.66;;;9.87
15709;BMP180;7954;51.914;8.420;2022-12-07T08:16:42;100266.31;;;9.86
15709;BMP180;7954;51.914;8.420;2022-12-07T08:19:11;100262.47;;;9.73
15709;BMP180;7954;51.914;8.420;2022-12-07T08:21:39;100262.47;;;9.88
15709;BMP180;7954;51.914;8.420;2022-12-07T08:24:07;100265.34;;;10.10
15709;BMP180;7954;51.914;8.420;2022-12-07T08:26:36;100268.16;;;10.17
15709;BMP180;7954;51.914;8.420;2022-12-07T08:29:04;100263.97;;;10.12
15709;BMP180;7954;51.914;8.420;2022-12-07T08:31:34;100270.94;;;10.04
15709;BMP180;7954;51.914;8.420;2022-12-07T08:34:03;100268.13;;;9.97
15709;BMP180;7954;51.914;8.420;2022-12-07T08:36:31;100262.81;;;9.95
15709;BMP180;7954;51.914;8.420;2022-12-07T08:38:58;100267.53;;;10.03
15709;BMP180;7954;51.914;8.420;2022-12-07T08:41:46;100272.78;;;9.90
15709;BMP180;7954;51.914;8.420;2022-12-07T08:44:14;100265.59;;;9.97
15709;BMP180;7954;51.914;8.420;2022-12-07T08:46:46;100259.91;;;9.98
15709;BMP180;7954;51.914;8.420;2022-12-07T08:49:17;100262.72;;;10.05
15709;BMP180;7954;51.914;8.420;2022-12-07T08:51:46;100255.41;;;10.06
15709;BMP180;7954;51.914;8.420;2022-12-07T08:54:16;100258.78;;;10.16
15709;BMP180;7954;51.914;8.420;2022-12-07T08:56:45;100261.78;;;10.19
15709;BMP180;7954;51.914;8.420;2022-12-07T08:59:21;100259.59;;;10.26
15709;BMP180;7954;51.914;8.420;2022-12-07T09:01:51;100256.88;;;10.30
15709;BMP180;7954;51.914;8.420;2022-12-07T09:04:19;100261.50;;;10.32
15709;BMP180;7954;51.914;8.420;2022-12-07T09:06:48;100255.28;;;10.30
15709;BMP180;7954;51.914;8.420;2022-12-07T09:09:16;100253.50;;;10.35
15709;BMP180;7954;51.914;8.420;2022-12-07T09:11:44;100254.38;;;10.30
15709;BMP180;7954;51.914;8.420;2022-12-07T09:14:13;100257.13;;;10.31
15709;BMP180;7954;51.914;8.420;2022-12-07T09:16:41;100260.47;;;10.41
15709;BMP180;7954;51.914;8.420;2022-12-07T09:19:11;100268.22;;;10.37
15709;BMP180;7954;51.914;8.420;2022-12-07T09:21:39;100262.91;;;10.51
15709;BMP180;7954;51.914;8.420;2022-12-07T09:24:08;100260.91;;;10.39
15709;BMP180;7954;51.914;8.420;2022-12-07T09:26:36;100259.59;;;10.67
15709;BMP180;7954;51.914;8.420;2022-12-07T09:29:05;100253.66;;;10.66
15709;BMP180;7954;51.914;8.420;2022-12-07T09:31:35;100257.94;;;10.62
15709;BMP180;7954;51.914;8.420;2022-12-07T09:34:06;100260.38;;;10.71
15709;BMP180;7954;51.914;8.420;2022-12-07T09:36:36;100260.91;;;10.80
15709;BMP180;7954;51.914;8.420;2022-12-07T09:39:04;100257.03;;;11.02
15709;BMP180;7954;51.914;8.420;2022-12-07T09:41:32;100257.38;;;11.14
15709;BMP180;7954;51.914;8.420;2022-12-07T09:44:04;100251.47;;;11.25
15709;BMP180;7954;51.914;8.420;2022-12-07T09:46:35;100255.44;;;11.28
15709;BMP180;7954;51.914;8.420;2022-12-07T09:49:04;100256.41;;;11.34
15709;BMP180;7954;51.914;8.420;2022-12-07T09:51:32;100254.34;;;11.37
15709;BMP180;7954;51.914;8.420;2022-12-07T09:54:02;100252.22;;;11.29
15709;BMP180;7954;51.914;8.420;2022-12-07T09:56:31;100261.78;;;11.21
15709;BMP180;7954;51.914;8.420;2022-12-07T09:59:01;100260.97;;;11.05
15709;BMP180;7954;51.914;8.420;2022-12-07T10:01:31;100256.06;;;11.01
15709;BMP180;7954;51.914;8.420;2022-12-07T10:04:08;100246.97;;;11.07
15709;BMP180;7954;51.914;8.420;2022-12-07T10:06:37;100245.28;;;11.23
15709;BMP180;7954;51.914;8.420;2022-12-07T10:09:10;100244.31;;;11.17
15709;BMP180;7954;51.914;8.420;2022-12-07T10:11:59;100242.59;;;11.32
15709;BMP180;7954;51.914;8.420;2022-12-07T10:14:28;100246.84;;;11.43
15709;BMP180;7954;51.914;8.420;2022-12-07T10:17:35;100238.97;;;11.61
15709;BMP180;7954;51.914;8.420;2022-12-07T10:20:16;100232.16;;;11.77
15709;BMP180;7954;51.914;8.420;2022-12-07T10:22:58;100231.19;;;11.71
15709;BMP180;7954;51.914;8.420;2022-12-07T10:25:29;100231.41;;;11.67
15709;BMP180;7954;51.914;8.420;2022-12-07T10:28:12;100234.44;;;11.70
15709;BMP180;7954;51.914;8.420;2022-12-07T10:30:52;100239.22;;;11.68
15709;BMP180;7954;51.914;8.420;2022-12-07T10:33:35;100237.88;;;11.76
15709;BMP180;7954;51.914;8.420;2022-12-07T10:36:19;100225.75;;;11.79
15709;BMP180;7954;51.914;8.420;2022-12-07T10:38:50;100221.72;;;11.64
15709;BMP180;7954;51.914;8.420;2022-12-07T10:41:19;100216.66;;;11.59
15709;BMP180;7954;51.914;8.420;2022-12-07T10:43:50;100235.91;;;11.53
15709;BMP180;7954;51.914;8.420;2022-12-07T10:46:46;100217.09;;;11.56
15709;BMP180;7954;51.914;8.420;2022-12-07T10:49:51;100210.03;;;11.65
15709;BMP180;7954;51.914;8.420;2022-12-07T10:52:36;100197.13;;;12.06
15709;BMP180;7954;51.914;8.420;2022-12-07T10:55:16;100196.34;;;12.38
15709;BMP180;7954;51.914;8.420;2022-12-07T10:57:59;100180.06;;;12.58
15709;BMP180;7954;51.914;8.420;2022-12-07T11:00:36;100175.66;;;12.51
15709;BMP180;7954;51.914;8.420;2022-12-07T11:03:18;100184.94;;;12.62
15709;BMP180;7954;51.914;8.420;2022-12-07T11:05:54;100179.41;;;12.64
15709;BMP180;7954;51.914;8.420;2022-12-07T11:08:37;100186.53;;;12.72
15709;BMP180;7954;51.914;8.420;2022-12-07T11:11:09;100190.59;;;12.33
15709;BMP180;7954;51.914;8.420;2022-12-07T11:13:47;100197.41;;;12.18
15709;BMP180;7954;51.914;8.420;2022-12-07T11:16:22;100185.94;;;12.25
15709;BMP180;7954;51.914;8.420;2022-12-07T11:19:00;100193.28;;;12.18
15709;BMP180;7954;51.914;8.420;2022-12-07T11:21:39;100185.31;;;12.32
15709;BMP180;7954;51.914;8.420;2022-12-07T11:24:14;100182.72;;;12.26
15709;BMP180;7954;51.914;8.420;2022-12-07T11:27:01;100189.81;;;12.07
15709;BMP180;7954;51.914;8.420;2022-12-07T11:30:02;100182.44;;;12.14
15709;BMP180;7954;51.914;8.420;2022-12-07T11:32:43;100177.38;;;12.09
15709;BMP180;7954;51.914;8.420;2022-12-07T11:35:21;100174.13;;;11.99
15709;BMP180;7954;51.914;8.420;2022-12-07T11:37:52;100147.75;;;12.24
15709;BMP180;7954;51.914;8.420;2022-12-07T11:40:26;100158.09;;;12.25
15709;BMP180;7954;51.914;8.420;2022-12-07T11:42:58;100151.22;;;12.35
15709;BMP180;7954;51.914;8.420;2022-12-07T11:45:31;100152.16;;;12.36
15709;BMP180;7954;51.914;8.420;2022-12-07T11:48:01;100149.88;;;12.43
15709;BMP180;7954;51.914;8.420;2022-12-07T11:50:36;100150.81;;;12.65
15709;BMP180;7954;51.914;8.420;2022-12-07T11:53:11;100147.38;;;12.59
15709;BMP180;7954;51.914;8.420;2022-12-07T11:55:46;100139.56;;;12.69
15709;BMP180;7954;51.914;8.420;2022-12-07T11:58:22;100132.63;;;12.68
15709;BMP180;7954;51.914;8.420;2022-12-07T12:01:13;100133.34;;;12.72
15709;BMP180;7954;51.914;8.420;2022-12-07T12:03:45;100130.56;;;12.54
15709;BMP180;7954;51.914;8.420;2022-12-07T12:06:19;100126.19;;;12.53
15709;BMP180;7954;51.914;8.420;2022-12-07T12:08:50;100142.56;;;12.72
15709;BMP180;7954;51.914;8.420;2022-12-07T12:11:59;100121.84;;;12.63
15709;BMP180;7954;51.914;8.420;2022-12-07T12:15:01;100128.75;;;12.64
15709;BMP180;7954;51.914;8.420;2022-12-07T12:17:51;100122.31;;;12.77
15709;BMP180;7954;51.914;8.420;2022-12-07T12:20:28;100120.25;;;13.02
15709;BMP180;7954;51.914;8.420;2022-12-07T12:23:00;100106.22;;;13.15
15709;BMP180;7954;51.914;8.420;2022-12-07T12:25:37;100116.81;;;13.18
15709;BMP180;7954;51.914;8.420;2022-12-07T12:28:22;100115.22;;;13.07
15709;BMP180;7954;51.914;8.420;2022-12-07T12:31:07;100110.31;;;13.47
15709;BMP180;7954;51.914;8.420;2022-12-07T12:33:43;100112.19;;;13.21
15709;BMP180;7954;51.914;8.420;2022-12-07T12:36:19;100103.44;;;13.30
15709;BMP180;7954;51.914;8.420;2022-12-07T12:38:49;100094.69;;;13.17
15709;BMP180;7954;51.914;8.420;2022-12-07T12:41:52;100101.59;;;13.18
15709;BMP180;7954;51.914;8.420;2022-12-07T12:45:04;100100.69;;;13.01
15709;BMP180;7954;51.914;8.420;2022-12-07T12:47:41;100103.19;;;12.79
15709;BMP180;7954;51.914;8.420;2022-12-07T12:50:37;100105.28;;;12.82
15709;BMP180;7954;51.914;8.420;2022-12-07T12:53:15;100105.31;;;12.98
15709;BMP180;7954;51.914;8.420;2022-12-07T12:56:03;100099.25;;;12.81
15709;BMP180;7954;51.914;8.420;2022-12-07T12:58:39;100089.41;;;12.93
15709;BMP180;7954;51.914;8.420;2022-12-07T13:01:40;100088.72;;;13.00
15709;BMP180;7954;51.914;8.420;2022-12-07T13:04:38;100085.72;;;13.08
15709;BMP180;7954;51.914;8.420;2022-12-07T13:07:46;100080.16;;;13.16
15709;BMP180;7954;51.914;8.420;2022-12-07T13:10:03;100075.31;;;13.12
15709;BMP180;7954;51.914;8.420;2022-12-07T13:12:31;100072.56;;;13.16
15709;BMP180;7954;51.914;8.420;2022-12-07T13:14:59;100083.63;;;13.11
15709;BMP180;7954;51.914;8.420;2022-12-07T13:17:57;100079.94;;;13.03
15709;BMP180;7954;51.914;8.420;2022-12-07T13:20:43;100080.19;;;12.94
15709;BMP180;7954;51.914;8.420;2022-12-07T13:23:14;100083.19;;;12.97
15709;BMP180;7954;51.914;8.420;2022-12-07T13:26:12;100085.47;;;13.12
15709;BMP180;7954;51.914;8.420;2022-12-07T13:28:45;100082.50;;;12.98
15709;BMP180;7954;51.914;8.420;2022-12-07T13:31:19;100073.53;;;13.00
15709;BMP180;7954;51.914;8.420;2022-12-07T13:33:50;100077.88;;;13.17
15709;BMP180;7954;51.914;8.420;2022-12-07T13:36:21;100089.63;;;13.00
15709;BMP180;7954;51.914;8.420;2022-12-07T13:38:54;100077.41;;;13.03
15709;BMP180;7954;51.914;8.420;2022-12-07T13:41:23;100068.44;;;13.00
15709;BMP180;7954;51.914;8.420;2022-12-07T13:44:00;100063.56;;;13.29
15709;BMP180;7954;51.914;8.420;2022-12-07T13:46:42;100051.00;;;13.57
15709;BMP180;7954;51.914;8.420;2022-12-07T13:49:21;100049.84;;;13.61
15709;BMP180;7954;51.914;8.420;2022-12-07T13:51:50;100043.44;;;13.52
15709;BMP180;7954;51.914;8.420;2022-12-07T13:54:21;100040.88;;;13.57
15709;BMP180;7954;51.914;8.420;2022-12-07T13:56:51;100051.53;;;13.39
15709;BMP180;7954;51.914;8.420;2022-12-07T13:59:21;100050.13;;;13.41
15709;BMP180;7954;51.914;8.420;2022-12-07T14:01:51;100036.56;;;13.35
15709;BMP180;7954;51.914;8.420;2022-12-07T14:04:32;100039.31;;;13.31
15709;BMP180;7954;51.914;8.420;2022-12-07T14:07:01;100041.22;;;13.26
15709;BMP180;7954;51.914;8.420;2022-12-07T14:09:55;100042.66;;;13.02
15709;BMP180;7954;51.914;8.420;2022-12-07T14:12:24;100052.78;;;12.86
15709;BMP180;7954;51.914;8.420;2022-12-07T14:14:53;100055.06;;;12.57
15709;BMP180;7954;51.914;8.420;2022-12-07T14:17:24;100057.34;;;12.61
15709;BMP180;7954;51.914;8.420;2022-12-07T14:19:54;100054.59;;;12.76
15709;BMP180;7954;51.914;8.420;2022-12-07T14:22:26;100057.13;;;12.71
15709;BMP180;7954;51.914;8.420;2022-12-07T14:25:16;100054.13;;;12.68
15709;BMP180;7954;51.914;8.420;2022-12-07T14:27:53;100055.53;;;12.55
15709;BMP180;7954;51.914;8.420;2022-12-07T14:30:38;100042.66;;;12.75
15709;BMP180;7954;51.914;8.420;2022-12-07T14:33:09;100044.47;;;12.65
15709;BMP180;7954;51.914;8.420;2022-12-07T14:35:37;100042.41;;;12.68
15709;BMP180;7954;51.914;8.420;2022-12-07T14:38:08;100035.00;;;12.48
15709;BMP180;7954;51.914;8.420;2022-12-07T14:40:38;100039.41;;;12.60
15709;BMP180;7954;51.914;8.420;2022-12-07T14:43:11;100040.78;;;12.47